createdAt,value
2022-12-01T00:01:14.021Z,17.67
2022-12-01T00:03:40.985Z,17.88
2022-12-01T00:06:13.126Z,16.60
2022-12-01T00:08:40.009Z,17.23
2022-12-01T00:11:14.121Z,16.00
2022-12-01T00:13:41.036Z,16.33
2022-12-01T00:16:16.114Z,16.70
2022-12-01T00:18:43.535Z,17.33
2022-12-01T00:21:18.283Z,15.65
2022-12-01T00:23:49.668Z,15.88
2022-12-01T00:26:17.735Z,15.93
2022-12-01T00:28:44.674Z,15.75
2022-12-01T00:31:12.589Z,16.00
2022-12-01T00:33:40.049Z,15.95
2022-12-01T00:36:07.487Z,15.02
2022-12-01T00:38:35.149Z,14.68
2022-12-01T00:41:02.644Z,15.20
2022-12-01T00:43:29.693Z,14.95
2022-12-01T00:45:56.920Z,15.15
2022-12-01T00:48:24.331Z,14.85
2022-12-01T00:50:52.917Z,14.43
2022-12-01T00:53:19.870Z,14.30
2022-12-01T00:55:46.922Z,14.85
2022-12-01T00:58:13.772Z,13.75
2022-12-01T01:00:40.711Z,13.77
2022-12-01T01:03:07.952Z,13.98
2022-12-01T01:05:39.351Z,14.48
2022-12-01T01:08:11.417Z,13.82
2022-12-01T01:10:42.309Z,14.38
2022-12-01T01:13:09.721Z,14.20
2022-12-01T01:15:36.945Z,13.55
2022-12-01T01:18:04.445Z,13.05
2022-12-01T01:20:31.938Z,13.00
2022-12-01T01:22:58.996Z,12.88
2022-12-01T01:25:28.909Z,13.23
2022-12-01T01:27:55.882Z,13.23
2022-12-01T01:30:22.846Z,12.75
2022-12-01T01:32:49.792Z,12.55
2022-12-01T01:35:16.699Z,12.20
2022-12-01T01:37:43.667Z,11.85
2022-12-01T01:40:11.445Z,11.98
2022-12-01T01:42:38.321Z,11.65
2022-12-01T01:45:11.441Z,12.30
2022-12-01T01:47:40.179Z,12.48
2022-12-01T01:50:10.801Z,11.02
2022-12-01T01:53:01.775Z,11.82
2022-12-01T01:55:34.123Z,11.75
2022-12-01T01:58:03.152Z,10.93
2022-12-01T02:00:30.044Z,10.88
2022-12-01T02:02:57.743Z,11.20
2022-12-01T02:05:28.239Z,11.18
2022-12-01T02:07:56.832Z,10.68
2022-12-01T02:10:34.793Z,11.23
2022-12-01T02:13:04.723Z,10.27
2022-12-01T02:15:40.596Z,10.60
2022-12-01T02:18:19.412Z,11.00
2022-12-01T02:21:10.547Z,11.20
2022-12-01T02:24:05.390Z,10.38
2022-12-01T02:26:53.825Z,11.23
2022-12-01T02:29:51.512Z,10.68
2022-12-01T02:33:02.036Z,9.88
2022-12-01T02:36:04.236Z,9.52
2022-12-01T02:38:56.886Z,9.70
2022-12-01T02:41:34.549Z,9.93
2022-12-01T02:44:16.556Z,10.25
2022-12-01T02:46:43.388Z,9.70
2022-12-01T02:49:26.276Z,9.30
2022-12-01T02:51:54.925Z,10.30
2022-12-01T02:54:22.341Z,9.65
2022-12-01T02:56:53.348Z,9.88
2022-12-01T03:01:56.674Z,9.52
2022-12-01T03:04:28.449Z,9.10
2022-12-01T03:06:58.390Z,9.60
2022-12-01T03:09:53.796Z,9.40
2022-12-01T03:12:46.412Z,9.93
2022-12-01T03:15:32.636Z,8.68
2022-12-01T03:18:14.585Z,9.23
2022-12-01T03:20:59.639Z,9.25
2022-12-01T03:23:29.792Z,9.30
2022-12-01T03:25:59.384Z,9.10
2022-12-01T03:28:31.038Z,8.95
2022-12-01T03:31:01.049Z,8.73
2022-12-01T03:33:33.177Z,8.80
2022-12-01T03:36:25.890Z,9.38
2022-12-01T03:38:57.241Z,8.82
2022-12-01T03:41:28.377Z,8.40
2022-12-01T03:44:05.908Z,8.68
2022-12-01T03:46:49.412Z,9.05
2022-12-01T03:49:17.830Z,8.52
2022-12-01T03:51:50.064Z,8.68
2022-12-01T03:54:21.572Z,8.82
2022-12-01T03:56:57.881Z,8.52
2022-12-01T03:59:25.118Z,8.75
2022-12-01T04:01:53.057Z,9.10
2022-12-01T04:04:20.140Z,8.52
2022-12-01T04:06:49.138Z,8.52
2022-12-01T04:09:16.506Z,8.13
2022-12-01T04:12:01.904Z,8.55
2022-12-01T04:14:30.080Z,7.95
2022-12-01T04:16:56.923Z,8.38
2022-12-01T04:19:23.797Z,7.88
2022-12-01T04:21:50.703Z,8.23
2022-12-01T04:24:17.548Z,8.48
2022-12-01T04:26:46.086Z,7.97
2022-12-01T04:29:14.851Z,8.27
2022-12-01T04:31:41.865Z,8.18
2022-12-01T04:34:10.349Z,7.80
2022-12-01T04:36:37.243Z,8.73
2022-12-01T04:39:04.457Z,8.43
2022-12-01T04:41:31.309Z,8.00
2022-12-01T04:43:58.154Z,8.15
2022-12-01T04:46:25.444Z,8.23
2022-12-01T04:48:52.783Z,8.55
2022-12-01T04:51:21.376Z,7.97
2022-12-01T04:53:49.331Z,7.35
2022-12-01T04:56:16.248Z,7.47
2022-12-01T04:58:43.228Z,8.80
2022-12-01T05:01:12.620Z,7.30
2022-12-01T05:03:40.877Z,8.10
2022-12-01T05:06:13.836Z,7.30
2022-12-01T05:08:41.033Z,7.50
2022-12-01T05:11:08.798Z,7.68
2022-12-01T05:13:40.314Z,8.02
2022-12-01T05:16:15.185Z,7.50
2022-12-01T05:18:42.716Z,7.28
2022-12-01T05:21:11.133Z,7.38
2022-12-01T05:23:39.291Z,6.60
2022-12-01T05:26:08.742Z,7.13
2022-12-01T05:28:36.037Z,6.57
2022-12-01T05:31:03.784Z,6.75
2022-12-01T05:33:31.208Z,6.57
2022-12-01T05:35:58.165Z,7.05
2022-12-01T05:38:25.162Z,6.32
2022-12-01T05:40:53.239Z,6.68
2022-12-01T05:43:26.925Z,6.63
2022-12-01T05:45:56.158Z,6.32
2022-12-01T05:48:23.628Z,7.32
2022-12-01T05:50:50.499Z,6.30
2022-12-01T05:53:17.872Z,6.85
2022-12-01T05:55:45.007Z,6.78
2022-12-01T05:58:12.549Z,6.78
2022-12-01T06:00:45.340Z,6.43
2022-12-01T06:03:13.586Z,6.78
2022-12-01T06:05:41.111Z,6.38
2022-12-01T06:08:08.380Z,6.25
2022-12-01T06:10:35.437Z,6.97
2022-12-01T06:13:02.562Z,6.43
2022-12-01T06:15:29.435Z,6.43
2022-12-01T06:17:59.745Z,6.22
2022-12-01T06:20:26.908Z,6.18
2022-12-01T06:22:53.845Z,6.28
2022-12-01T06:25:20.734Z,6.22
2022-12-01T06:27:47.690Z,6.43
2022-12-01T06:30:14.785Z,5.90
2022-12-01T06:32:41.634Z,6.32
2022-12-01T06:35:08.955Z,6.03
2022-12-01T06:37:35.871Z,5.85
2022-12-01T06:40:02.732Z,6.22
2022-12-01T06:42:31.666Z,6.10
2022-12-01T06:44:58.560Z,6.35
2022-12-01T06:47:25.432Z,6.63
2022-12-01T06:49:52.743Z,6.47
2022-12-01T06:52:19.821Z,6.10
2022-12-01T06:54:46.735Z,6.25
2022-12-01T06:57:13.784Z,6.57
2022-12-01T06:59:40.959Z,6.20
2022-12-01T07:02:11.258Z,6.68
2022-12-01T07:04:38.219Z,98.45
2022-12-01T07:07:06.342Z,99.00
2022-12-01T07:09:33.290Z,78.70
2022-12-01T07:12:00.164Z,74.75
2022-12-01T07:14:27.718Z,68.30
2022-12-01T07:16:54.944Z,63.88
2022-12-01T07:19:22.283Z,58.42
2022-12-01T07:21:49.198Z,54.75
2022-12-01T07:24:16.232Z,52.08
2022-12-01T07:26:43.573Z,48.75
2022-12-01T07:29:11.191Z,44.03
2022-12-01T07:31:38.915Z,42.20
2022-12-01T07:34:06.238Z,38.42
2022-12-01T07:36:33.611Z,38.47
2022-12-01T07:39:04.482Z,35.67
2022-12-01T07:41:31.417Z,34.60
2022-12-01T07:43:58.366Z,50.60
2022-12-01T07:46:26.837Z,57.25
2022-12-01T07:48:54.906Z,54.10
2022-12-01T07:51:23.084Z,53.47
2022-12-01T07:53:50.893Z,51.67
2022-12-01T07:56:18.423Z,47.30
2022-12-01T07:58:45.310Z,44.55
2022-12-01T08:01:17.899Z,43.35
2022-12-01T08:03:45.322Z,39.97
2022-12-01T08:06:12.492Z,38.53
2022-12-01T08:08:41.379Z,37.85
2022-12-01T08:11:12.200Z,35.05
2022-12-01T08:13:39.714Z,36.00
2022-12-01T08:16:07.989Z,34.58
2022-12-01T08:18:36.194Z,34.75
2022-12-01T08:21:03.686Z,35.50
2022-12-01T08:23:30.696Z,79.35
2022-12-01T08:26:04.521Z,85.38
2022-12-01T08:28:31.601Z,78.18
2022-12-01T08:30:58.557Z,73.18
2022-12-01T08:33:25.520Z,70.40
2022-12-01T08:35:52.934Z,61.00
2022-12-01T08:38:19.813Z,57.85
2022-12-01T08:40:46.695Z,54.75
2022-12-01T08:43:23.159Z,51.28
2022-12-01T08:46:01.604Z,47.60
2022-12-01T08:48:31.814Z,42.83
2022-12-01T08:51:10.965Z,41.10
2022-12-01T08:56:21.326Z,38.25
2022-12-01T08:58:48.521Z,36.97
2022-12-01T09:01:16.854Z,34.80
2022-12-01T09:03:44.406Z,33.65
2022-12-01T09:06:14.511Z,34.58
2022-12-01T09:08:41.868Z,31.92
2022-12-01T09:11:15.384Z,31.20
2022-12-01T09:13:43.390Z,30.23
2022-12-01T09:16:15.269Z,29.45
2022-12-01T09:18:43.117Z,28.20
2022-12-01T09:21:14.626Z,27.83
2022-12-01T09:23:41.812Z,27.67
2022-12-01T09:26:13.347Z,26.30
2022-12-01T09:28:40.849Z,26.15
2022-12-01T09:31:10.652Z,25.58
2022-12-01T09:33:38.437Z,24.45
2022-12-01T09:36:12.157Z,24.70
2022-12-01T09:38:39.776Z,23.15
2022-12-01T09:44:17.423Z,22.15
2022-12-01T09:46:49.312Z,22.23
2022-12-01T09:49:40.029Z,21.92
2022-12-01T09:52:11.068Z,22.17
2022-12-01T09:54:38.035Z,20.85
2022-12-01T09:57:05.068Z,21.67
2022-12-01T10:02:32.871Z,21.63
2022-12-01T10:05:01.926Z,20.60
2022-12-01T10:07:32.197Z,36.28
2022-12-01T10:12:36.063Z,44.67
2022-12-01T10:15:33.587Z,41.75
2022-12-01T10:18:03.457Z,40.10
2022-12-01T10:20:45.613Z,38.28
2022-12-01T10:23:25.001Z,34.92
2022-12-01T10:25:59.432Z,34.05
2022-12-01T10:28:32.458Z,32.35
2022-12-01T10:31:08.423Z,30.15
2022-12-01T10:36:25.544Z,27.65
2022-12-01T10:38:52.547Z,32.03
2022-12-01T10:41:20.767Z,49.70
2022-12-01T10:43:50.661Z,52.97
2022-12-01T10:46:42.105Z,47.70
2022-12-01T10:49:14.387Z,46.53
2022-12-01T10:51:54.515Z,43.65
2022-12-01T10:54:23.177Z,40.65
2022-12-01T10:56:55.119Z,38.53
2022-12-01T11:01:53.978Z,34.22
2022-12-01T11:04:46.527Z,33.03
2022-12-01T11:07:27.355Z,32.35
2022-12-01T11:10:22.661Z,32.13
2022-12-01T11:12:56.603Z,30.60
2022-12-01T11:15:29.631Z,28.83
2022-12-01T11:18:02.119Z,27.55
2022-12-01T11:20:31.905Z,29.02
2022-12-01T11:23:26.821Z,26.40
2022-12-01T11:26:10.936Z,25.33
2022-12-01T11:28:42.385Z,23.92
2022-12-01T11:31:10.606Z,23.92
2022-12-01T11:33:54.961Z,23.88
2022-12-01T11:36:39.821Z,23.48
2022-12-01T11:39:06.705Z,22.77
2022-12-01T11:41:38.165Z,23.88
2022-12-01T11:44:22.556Z,22.17
2022-12-01T11:47:01.649Z,21.25
2022-12-01T11:49:47.111Z,22.20
2022-12-01T11:52:30.736Z,22.92
2022-12-01T11:55:11.161Z,21.80
2022-12-01T11:57:41.312Z,21.40
2022-12-01T12:00:15.843Z,21.30
2022-12-01T12:02:51.795Z,20.65
2022-12-01T12:06:17.775Z,18.70
2022-12-01T12:08:53.446Z,19.83
2022-12-01T12:11:46.783Z,20.55
2022-12-01T12:14:31.773Z,20.27
2022-12-01T12:17:31.270Z,19.88
2022-12-01T12:20:22.212Z,20.10
2022-12-01T12:23:13.745Z,19.42
2022-12-01T12:26:09.727Z,20.30
2022-12-01T12:28:44.551Z,20.48
2022-12-01T12:31:29.931Z,20.90
2022-12-01T12:34:05.738Z,20.73
2022-12-01T12:36:42.183Z,19.27
2022-12-01T12:39:24.718Z,19.92
2022-12-01T12:41:55.948Z,19.70
2022-12-01T12:44:36.801Z,19.30
2022-12-01T12:47:17.624Z,19.05
2022-12-01T12:50:22.047Z,19.30
2022-12-01T12:52:54.333Z,18.45
2022-12-01T12:55:37.418Z,19.52
2022-12-01T12:58:24.202Z,18.77
2022-12-01T13:00:58.373Z,18.70
2022-12-01T13:03:49.860Z,17.73
2022-12-01T13:06:22.838Z,18.17
2022-12-01T13:08:57.598Z,17.23
2022-12-01T13:11:29.868Z,17.38
2022-12-01T13:14:18.332Z,17.23
2022-12-01T13:16:48.329Z,15.98
2022-12-01T13:19:22.751Z,16.80
2022-12-01T13:21:51.126Z,15.93
2022-12-01T13:24:23.327Z,15.75
2022-12-01T13:26:55.204Z,29.25
2022-12-01T13:29:24.577Z,36.20
2022-12-01T13:31:53.477Z,34.40
2022-12-01T13:34:39.213Z,35.20
2022-12-01T13:37:06.362Z,33.55
2022-12-01T13:42:18.802Z,32.83
2022-12-01T13:44:51.405Z,30.17
2022-12-01T13:47:21.295Z,29.27
2022-12-01T13:49:50.157Z,27.80
2022-12-01T13:52:23.483Z,27.23
2022-12-01T13:55:08.364Z,25.95
2022-12-01T13:57:36.095Z,25.98
2022-12-01T14:00:24.232Z,23.40
2022-12-01T14:03:13.135Z,23.10
2022-12-01T14:05:40.224Z,22.80
2022-12-01T14:08:22.838Z,21.73
2022-12-01T14:10:53.379Z,32.65
2022-12-01T14:16:01.222Z,43.47
2022-12-01T14:18:44.053Z,41.90
2022-12-01T14:21:12.511Z,41.65
2022-12-01T14:23:58.576Z,38.47
2022-12-01T14:26:27.586Z,35.45
2022-12-01T14:29:03.139Z,32.88
2022-12-01T14:31:33.142Z,32.58
2022-12-01T14:34:03.796Z,31.65
2022-12-01T14:36:37.861Z,30.23
2022-12-01T14:39:21.719Z,28.80
2022-12-01T14:43:12.156Z,27.58
2022-12-01T14:46:09.013Z,25.58
2022-12-01T14:48:42.415Z,24.13
2022-12-01T14:51:23.036Z,23.92
2022-12-01T14:53:51.122Z,22.85
2022-12-01T14:56:19.703Z,23.42
2022-12-01T14:58:58.496Z,53.83
2022-12-01T15:01:31.710Z,52.00
2022-12-01T15:04:00.320Z,51.38
2022-12-01T15:06:28.899Z,45.72
2022-12-01T15:09:31.995Z,42.85
2022-12-01T15:12:00.652Z,40.58
2022-12-01T15:14:36.220Z,38.17
2022-12-01T15:17:05.551Z,36.60
2022-12-01T15:19:39.145Z,33.47
2022-12-01T15:22:15.525Z,32.13
2022-12-01T15:24:43.105Z,31.58
2022-12-01T15:27:32.013Z,28.38
2022-12-01T15:30:04.351Z,29.33
2022-12-01T15:35:05.675Z,26.42
2022-12-01T15:37:43.880Z,27.20
2022-12-01T15:43:18.106Z,23.77
2022-12-01T15:45:50.884Z,23.90
2022-12-01T15:48:29.118Z,23.05
2022-12-01T15:51:04.463Z,23.45
2022-12-01T15:53:34.714Z,22.40
2022-12-01T15:56:04.536Z,22.38
2022-12-01T15:58:36.646Z,22.10
2022-12-01T16:01:12.790Z,21.05
2022-12-01T16:03:58.604Z,21.02
2022-12-01T16:06:28.851Z,21.58
2022-12-01T16:09:08.025Z,19.77
2022-12-01T16:11:34.994Z,19.75
2022-12-01T16:14:08.094Z,19.00
2022-12-01T16:16:45.968Z,19.08
2022-12-01T16:19:12.848Z,19.10
2022-12-01T16:22:14.253Z,18.80
2022-12-01T16:24:55.176Z,17.75
2022-12-01T16:27:27.121Z,17.90
2022-12-01T16:29:54.009Z,23.90
2022-12-01T16:32:35.223Z,48.47
2022-12-01T16:35:04.275Z,52.22
2022-12-01T16:37:31.649Z,50.38
2022-12-01T16:39:58.939Z,47.55
2022-12-01T16:42:25.806Z,43.55
2022-12-01T16:44:53.255Z,40.45
2022-12-01T16:47:24.282Z,37.83
2022-12-01T16:49:52.940Z,35.90
2022-12-01T16:52:49.530Z,34.33
2022-12-01T16:55:27.573Z,32.80
2022-12-01T16:57:55.520Z,30.02
2022-12-01T17:00:23.439Z,29.88
2022-12-01T17:02:50.528Z,27.08
2022-12-01T17:05:17.492Z,27.15
2022-12-01T17:07:44.606Z,25.92
2022-12-01T17:10:12.058Z,25.83
2022-12-01T17:12:39.028Z,24.50
2022-12-01T17:15:06.625Z,25.58
2022-12-01T17:17:33.692Z,23.98
2022-12-01T17:20:00.569Z,23.42
2022-12-01T17:22:27.431Z,22.13
2022-12-01T17:24:55.596Z,22.20
2022-12-01T17:27:24.626Z,21.83
2022-12-01T17:29:51.561Z,21.90
2022-12-01T17:32:18.477Z,20.55
2022-12-01T17:34:45.364Z,21.63
2022-12-01T17:37:17.535Z,21.48
2022-12-01T17:39:47.475Z,20.13
2022-12-01T17:42:14.385Z,19.05
2022-12-01T17:44:41.323Z,20.92
2022-12-01T17:47:08.231Z,19.70
2022-12-01T17:49:36.686Z,19.05
2022-12-01T17:52:04.794Z,18.88
2022-12-01T17:54:32.021Z,18.42
2022-12-01T17:56:58.994Z,18.58
2022-12-01T17:59:26.026Z,18.65
2022-12-01T18:01:53.017Z,19.63
2022-12-01T18:04:20.048Z,17.88
2022-12-01T18:06:52.305Z,18.00
2022-12-01T18:09:21.012Z,18.17
2022-12-01T18:11:48.197Z,16.90
2022-12-01T18:14:17.951Z,17.00
2022-12-01T18:16:45.678Z,17.05
2022-12-01T18:19:12.636Z,17.30
2022-12-01T18:21:40.156Z,17.40
2022-12-01T18:24:09.223Z,16.63
2022-12-01T18:26:39.845Z,16.77
2022-12-01T18:29:23.895Z,16.95
2022-12-01T18:31:50.815Z,15.88
2022-12-01T18:34:17.742Z,16.17
2022-12-01T18:36:45.131Z,16.15
2022-12-01T18:39:12.338Z,16.83
2022-12-01T18:41:39.927Z,15.32
2022-12-01T18:44:07.104Z,21.45
2022-12-01T18:46:34.679Z,35.97
2022-12-01T18:49:03.033Z,35.28
2022-12-01T18:51:31.404Z,35.13
2022-12-01T18:54:00.046Z,33.78
2022-12-01T18:56:27.211Z,31.92
2022-12-01T18:58:59.058Z,29.98
2022-12-01T19:01:40.559Z,29.10
2022-12-01T19:04:09.171Z,33.13
2022-12-01T19:06:38.118Z,71.93
2022-12-01T19:09:06.907Z,71.03
2022-12-01T19:11:33.779Z,68.77
2022-12-01T19:14:00.781Z,66.13
2022-12-01T19:16:28.201Z,63.28
2022-12-01T19:18:55.078Z,58.35
2022-12-01T19:21:21.963Z,55.20
2022-12-01T19:23:49.286Z,51.92
2022-12-01T19:26:18.875Z,49.70
2022-12-01T19:28:46.258Z,45.28
2022-12-01T19:31:19.072Z,44.30
2022-12-01T19:33:46.386Z,42.25
2022-12-01T19:36:16.233Z,41.00
2022-12-01T19:41:13.054Z,39.35
2022-12-01T19:43:40.382Z,35.13
2022-12-01T19:46:13.927Z,36.83
2022-12-01T19:48:40.958Z,32.75
2022-12-01T19:51:09.236Z,31.73
2022-12-01T19:53:36.095Z,30.55
2022-12-01T19:56:04.260Z,31.15
2022-12-01T19:58:34.453Z,29.77
2022-12-01T20:01:06.520Z,27.85
2022-12-01T20:03:33.436Z,26.92
2022-12-01T20:06:05.513Z,26.20
2022-12-01T20:08:35.744Z,26.45
2022-12-01T20:11:06.377Z,25.80
2022-12-01T20:13:35.305Z,25.13
2022-12-01T20:16:04.416Z,26.45
2022-12-01T20:18:31.382Z,57.17
2022-12-01T20:21:16.538Z,62.20
2022-12-01T20:23:44.772Z,59.55
2022-12-01T20:26:12.362Z,54.95
2022-12-01T20:28:40.152Z,51.03
2022-12-01T20:31:19.221Z,47.15
2022-12-01T20:33:46.462Z,48.30
2022-12-01T20:36:14.534Z,43.47
2022-12-01T20:38:41.871Z,42.75
2022-12-01T20:41:08.922Z,40.63
2022-12-01T20:43:35.878Z,38.85
2022-12-01T20:46:03.774Z,37.85
2022-12-01T20:48:31.359Z,36.90
2022-12-01T20:51:01.079Z,34.58
2022-12-01T20:55:55.700Z,33.40
2022-12-01T20:58:22.767Z,31.75
2022-12-01T21:00:49.876Z,31.17
2022-12-01T21:03:16.854Z,30.08
2022-12-01T21:05:44.148Z,29.83
2022-12-01T21:08:12.865Z,28.63
2022-12-01T21:10:42.587Z,54.65
2022-12-01T21:16:07.017Z,57.53
2022-12-01T21:18:49.740Z,70.20
2022-12-01T21:21:30.471Z,104.22
2022-12-01T21:24:11.322Z,94.63
2022-12-01T21:26:40.946Z,87.90
2022-12-01T21:29:17.784Z,81.72
2022-12-01T21:31:45.681Z,74.28
2022-12-01T21:34:27.112Z,69.97
2022-12-01T21:36:56.587Z,68.18
2022-12-01T21:39:25.024Z,62.28
2022-12-01T21:42:00.335Z,59.50
2022-12-01T21:44:37.900Z,56.65
2022-12-01T21:47:24.283Z,53.90
2022-12-01T21:49:54.035Z,52.55
2022-12-01T21:54:49.311Z,48.92
2022-12-01T21:57:43.062Z,45.53
2022-12-01T22:00:29.816Z,45.17
2022-12-01T22:03:08.960Z,44.30
2022-12-01T22:05:39.507Z,42.50
2022-12-01T22:08:12.388Z,41.88
2022-12-01T22:11:03.178Z,40.30
2022-12-01T22:13:45.813Z,39.35
2022-12-01T22:19:30.103Z,41.15
2022-12-01T22:22:21.912Z,64.72
2022-12-01T22:24:51.315Z,63.10
2022-12-01T22:27:40.144Z,60.65
2022-12-01T22:30:07.401Z,54.65
2022-12-01T22:32:53.244Z,53.15
2022-12-01T22:35:39.335Z,49.58
2022-12-01T22:38:06.128Z,48.28
2022-12-01T22:40:39.788Z,47.90
2022-12-01T22:43:15.873Z,46.78
2022-12-01T22:45:43.435Z,44.33
2022-12-01T22:48:39.421Z,43.15
2022-12-01T22:51:26.052Z,41.08
2022-12-01T22:54:14.106Z,39.63
2022-12-01T22:56:53.977Z,38.70
2022-12-01T22:59:29.653Z,38.15
2022-12-01T23:01:58.997Z,36.70
2022-12-01T23:04:32.687Z,38.30
2022-12-01T23:07:07.178Z,35.13
2022-12-01T23:09:42.401Z,34.53
2022-12-01T23:12:22.297Z,36.10
2022-12-01T23:14:54.286Z,33.88
2022-12-01T23:17:24.176Z,33.40
2022-12-01T23:19:52.909Z,32.35
2022-12-01T23:22:20.525Z,32.33
2022-12-01T23:24:47.558Z,31.30
2022-12-01T23:27:15.668Z,31.92
2022-12-01T23:29:42.615Z,31.08
2022-12-01T23:32:10.684Z,31.88
2022-12-01T23:34:37.645Z,30.17
2022-12-01T23:37:05.866Z,35.60
2022-12-01T23:39:35.833Z,77.28
2022-12-01T23:42:03.267Z,80.43
2022-12-01T23:44:45.355Z,74.28
2022-12-01T23:47:28.420Z,68.18
2022-12-01T23:50:01.743Z,62.00
2022-12-01T23:52:34.275Z,60.08
2022-12-01T23:55:02.594Z,55.88
2022-12-01T23:57:31.029Z,54.10
